Mercator — FGE8444 — position and weather

sailwx.info

Track history (hours):
 
Tides and Currents Weather Stations Pressure Air Temp Water Temp Dewpoint Dewpoint Depression Visibility Wind Speed Wind Dir Waves Ship Positions

Mercator

Last reported at 2018-Feb-20 10:28 UTC. Time now 2018-Feb-21 19:43 UTC.
Position N 47°17' W 001°60'.

Length 12 m.

Type: Dredging. MMSI: 227682070.

Date/timePositionNaut miles runAvg speedWind from/ knotsBaromVisibWave heightAir tempDewpointWater temp
2018-Feb-20 10:28N 47°17' W 001°60'0 0.4
2018-Feb-20 10:00N 47°17' W 002°00'1 2.7
2018-Feb-20 09:30N 47°18' W 002°02'3 0.1
2018-Feb-19 08:52N 47°18' W 002°06'2 0.1
2018-Feb-18 01:50N 47°18' W 002°09'0 0.0
2018-Feb-16 09:19N 47°18' W 002°09'0 0.0
2018-Feb-16 08:49N 47°18' W 002°09'0 0.0
2018-Feb-16 08:25N 47°18' W 002°09'0 0.0
2018-Feb-16 07:54N 47°18' W 002°09'0 0.0
2018-Feb-16 06:47N 47°18' W 002°09'0 0.0
2018-Feb-16 06:29N 47°18' W 002°09'0 0.0
2018-Feb-16 01:59N 47°18' W 002°09'0 0.0
2018-Feb-16 01:23N 47°18' W 002°09'0 0.0
2018-Feb-15 16:58N 47°18' W 002°09'2 0.3
2018-Feb-15 10:25N 47°18' W 002°06'0 0.4
2018-Feb-15 09:52N 47°18' W 002°06'0 0.2
2018-Feb-15 08:51N 47°18' W 002°06'1 0.1
2018-Feb-14 15:18N 47°18' W 002°04'0 0.3
2018-Feb-14 14:59N 47°18' W 002°04'5 0.1
2018-Feb-12 17:25N 47°17' W 002°11'0 0.0
2018-Feb-12 13:49N 47°17' W 002°11'3 0.7
2018-Feb-12 09:22N 47°18' W 002°07'0 0.1
2018-Feb-12 08:40N 47°18' W 002°07'0 0.2
2018-Feb-12 08:24N 47°18' W 002°07'0 0.3
2018-Feb-12 07:57N 47°18' W 002°07'0 0.2
2018-Feb-12 07:24N 47°18' W 002°07'  
Track history (hours):
 
Tides and Currents Weather Stations Pressure Air Temp Water Temp Dewpoint Dewpoint Depression Visibility Wind Speed Wind Dir Waves Ship Positions

Mercator

Last reported at 2018-Feb-20 10:28 UTC. Time now 2018-Feb-21 19:43 UTC.
Position N 47°17' W 001°60'.

Length 12 m.

Type: Dredging. MMSI: 227682070.

Date/timePositionNaut miles runAvg speedWind from/ knotsBaromVisibWave heightAir tempDewpointWater temp
2018-Feb-20 10:28N 47°17' W 001°60'0 0.4
2018-Feb-20 10:00N 47°17' W 002°00'1 2.7
2018-Feb-20 09:30N 47°18' W 002°02'3 0.1
2018-Feb-19 08:52N 47°18' W 002°06'2 0.1
2018-Feb-18 01:50N 47°18' W 002°09'0 0.0
2018-Feb-16 09:19N 47°18' W 002°09'0 0.0
2018-Feb-16 08:49N 47°18' W 002°09'0 0.0
2018-Feb-16 08:25N 47°18' W 002°09'0 0.0
2018-Feb-16 07:54N 47°18' W 002°09'0 0.0
2018-Feb-16 06:47N 47°18' W 002°09'0 0.0
2018-Feb-16 06:29N 47°18' W 002°09'0 0.0
2018-Feb-16 01:59N 47°18' W 002°09'0 0.0
2018-Feb-16 01:23N 47°18' W 002°09'0 0.0
2018-Feb-15 16:58N 47°18' W 002°09'2 0.3
2018-Feb-15 10:25N 47°18' W 002°06'0 0.4
2018-Feb-15 09:52N 47°18' W 002°06'0 0.2
2018-Feb-15 08:51N 47°18' W 002°06'1 0.1
2018-Feb-14 15:18N 47°18' W 002°04'0 0.3
2018-Feb-14 14:59N 47°18' W 002°04'5 0.1
2018-Feb-12 17:25N 47°17' W 002°11'0 0.0
2018-Feb-12 13:49N 47°17' W 002°11'3 0.7
2018-Feb-12 09:22N 47°18' W 002°07'0 0.1
2018-Feb-12 08:40N 47°18' W 002°07'0 0.2
2018-Feb-12 08:24N 47°18' W 002°07'0 0.3
2018-Feb-12 07:57N 47°18' W 002°07'0 0.2
2018-Feb-12 07:24N 47°18' W 002°07'  

Dump ship's entire track history